»·PEaware :: N196EC KSAN-L00

N196EC :: KSAN-L00

FLIGHT INFORMATION

Flight Status: Arrived
Operator: Privately registered:
United States
More flights under this callsign
Pilot: Adrián R. (20842)
Aircraft: SOCATA TBM-900
(TBM9)
More flights by this aircraft type
Origin: KSAN San Diego Intl-Lindbergh
United States
Destination: L00 Rosamond
United States
More flights between these airports :: More routes between these airports
Route: +PEBLE6 SLI V459 BERRI V201 PMD
File this flight plan on PilotEdge
Remarks:
Altitude:
(Current/Filed)
12,000ft
Speed:
(Current/Filed)
267kts
Departed: 20-Nov-18 08:54 AM
Arrived: 20-Nov-18 09:37 AM
Distance/Time
Traveled:
138nm/0:42
Distance/Time
To Go:
Arrived

Flight Plot

Page will automatically refresh every two minutes.

Flight plan parsing failed; only flown route is shown


Map Options




Map Legend


Flown Route
Filed Route
Departure Airport
Arrival Airport
Navaid (VOR, NDB)
Fix

Horizontal Profiles

Position Reports

Time Latitude Longitude Heading Altitude Ground
Speed
20-Nov-18 08:25 32.732353 -117.177704 194 19ft 0kts
20-Nov-18 08:26 32.732353 -117.177704 194 19ft 0kts
20-Nov-18 08:27 32.732353 -117.177704 194 19ft 0kts
20-Nov-18 08:28 32.732353 -117.177704 194 19ft 0kts
20-Nov-18 08:29 32.732353 -117.177704 194 19ft 0kts
20-Nov-18 08:30 32.732353 -117.177704 194 19ft 0kts
20-Nov-18 08:31 32.732353 -117.177704 194 19ft 0kts
20-Nov-18 08:32 32.732353 -117.177704 194 19ft 0kts
20-Nov-18 08:33 32.732353 -117.177704 194 19ft 0kts
20-Nov-18 08:34 32.732353 -117.177704 194 19ft 0kts
20-Nov-18 08:35 32.732353 -117.177704 194 19ft 0kts
20-Nov-18 08:36 32.732353 -117.177704 194 19ft 0kts
20-Nov-18 08:37 32.732353 -117.177704 194 19ft 0kts
20-Nov-18 08:38 32.732353 -117.177704 194 19ft 0kts
20-Nov-18 08:39 32.732353 -117.177704 194 19ft 0kts
20-Nov-18 08:40 32.732353 -117.177704 194 19ft 0kts
20-Nov-18 08:41 32.732353 -117.177704 194 19ft 0kts
20-Nov-18 08:42 32.732353 -117.177704 194 19ft 0kts
20-Nov-18 08:43 32.732353 -117.177704 194 19ft 0kts
20-Nov-18 08:44 32.732353 -117.177704 194 19ft 0kts
20-Nov-18 08:45 32.732353 -117.177704 194 19ft 0kts
20-Nov-18 08:46 32.732353 -117.177704 194 19ft 0kts
20-Nov-18 08:47 32.732353 -117.177704 194 19ft 0kts
20-Nov-18 08:48 32.732353 -117.177704 194 19ft 0kts
20-Nov-18 08:49 32.732353 -117.177704 194 19ft 0kts
20-Nov-18 08:50 32.732353 -117.177704 194 19ft 0kts
20-Nov-18 08:51 32.732177 -117.177756 191 19ft 5kts
20-Nov-18 08:52 32.731002 -117.175360 107 23ft 8kts
20-Nov-18 08:53 32.730951 -117.175242 142 24ft 0kts
20-Nov-18 08:54 32.730951 -117.175242 142 24ft 0kts
20-Nov-18 08:55 32.730951 -117.175242 142 24ft 0kts
20-Nov-18 08:56 32.730824 -117.175128 148 23ft 6kts
20-Nov-18 08:57 32.731350 -117.180550 286 17ft 98kts
20-Nov-18 08:58 32.748620 -117.219570 305 1742ft 147kts
20-Nov-18 08:59 32.772657 -117.260943 305 3707ft 156kts
20-Nov-18 09:00 32.797462 -117.303932 305 5600ft 163kts
20-Nov-18 09:01 32.823446 -117.348998 305 7675ft 169kts
20-Nov-18 09:02 32.850630 -117.396201 304 9665ft 178kts
20-Nov-18 09:03 32.882999 -117.440057 330 11619ft 183kts
20-Nov-18 09:04 32.934464 -117.476195 329 11976ft 245kts
20-Nov-18 09:05 32.984760 -117.534881 307 11959ft 266kts
20-Nov-18 09:06 33.030663 -117.604635 308 11955ft 267kts
20-Nov-18 09:07 33.076532 -117.674303 307 11953ft 266kts
20-Nov-18 09:08 33.118052 -117.737858 307 11951ft 264kts
20-Nov-18 09:09 33.157253 -117.798135 307 11980ft 262kts
20-Nov-18 09:10 33.213853 -117.847178 344 11983ft 259kts
20-Nov-18 09:11 33.282533 -117.872482 344 11982ft 258kts
20-Nov-18 09:12 33.350700 -117.897186 345 11979ft 255kts
20-Nov-18 09:13 33.420696 -117.922565 344 11978ft 269kts
20-Nov-18 09:14 33.492668 -117.948715 344 11974ft 272kts
20-Nov-18 09:15 33.565130 -117.975086 344 11958ft 273kts
20-Nov-18 09:16 33.637090 -118.001318 344 11960ft 273kts
20-Nov-18 09:17 33.708188 -118.027281 344 11961ft 273kts
20-Nov-18 09:18 33.780530 -118.053884 341 11961ft 274kts
20-Nov-18 09:19 33.848832 -118.092391 336 11976ft 274kts
20-Nov-18 09:20 33.906263 -118.125391 335 11982ft 274kts
20-Nov-18 09:21 33.986257 -118.171468 335 11982ft 274kts
20-Nov-18 09:22 34.054875 -118.211072 335 11979ft 275kts
20-Nov-18 09:23 34.118136 -118.247647 335 11975ft 274kts
20-Nov-18 09:24 34.172493 -118.279117 335 11983ft 274kts
20-Nov-18 09:25 34.253784 -118.263418 25 11986ft 264kts
20-Nov-18 09:26 34.309866 -118.234148 26 12004ft 264kts
20-Nov-18 09:27 34.377100 -118.198669 26 12033ft 263kts
20-Nov-18 09:28 34.458808 -118.165337 3 10415ft 277kts
20-Nov-18 09:29 34.520435 -118.181547 348 8918ft 260kts
20-Nov-18 09:30 34.585960 -118.207916 336 7107ft 243kts
20-Nov-18 09:31 34.644084 -118.241607 336 5659ft 230kts
20-Nov-18 09:32 34.691674 -118.290150 317 4560ft 211kts
20-Nov-18 09:33 34.732546 -118.338209 321 4497ft 199kts
20-Nov-18 09:34 34.778661 -118.340409 31 3658ft 162kts
20-Nov-18 09:35 34.810324 -118.299589 51 3567ft 167kts
20-Nov-18 09:36 34.837787 -118.254324 52 3416ft 160kts
20-Nov-18 09:37 34.857199 -118.218161 86 3370ft 93kts
20-Nov-18 09:38 34.857376 -118.186834 87 3392ft 92kts
20-Nov-18 09:39 34.869833 -118.183409 283 3059ft 98kts
20-Nov-18 09:40 34.870384 -118.208310 211 2418ft 8kts
20-Nov-18 09:41 34.870223 -118.208329 175 2418ft 0kts
20-Nov-18 09:42 34.870213 -118.208326 163 2418ft 1kts
20-Nov-18 09:43 34.869947 -118.206577 179 2418ft 4kts
20-Nov-18 09:44 34.869400 -118.206653 5 2418ft 0kts
20-Nov-18 09:45 34.869400 -118.206653 5 2418ft 0kts

Navigation Log

Ident Type
Flight plan parsing failed, navigation log unavailable